Weather at Loudun Airfield

Public forecast

Using degrees Celsius for public forecast. Weather courtesy of forecast.io.

Closest aviation weather report (METAR) to Loudun Airfield

Closest report is Poitiers-Biard Airport, 28.2 nm (52.3 km) SSE.

2024/07/17 13:00 (retrieved 34 minutes ago)

LFBI 171300Z AUTO VRB04KT CAVOK 24/14 Q1021 NOSIG

Closest aviation forecast (TAF) to Loudun Airfield

Closest forecast is Poitiers-Biard Airport, 28.2 nm (52.3 km) SSE.

2024/07/17 12:21 (retrieved 1 hour ago)

TAF LFBI 171100Z 1712/1812 VRB05KT CAVOK